Startpagina
METAR-TAF:

METAR-TAF

Vliegvelden :

Locarno, Zwitserland

breedte: 46-09-55N, lengte: 8-52-40E, hoogte: 198 m

Actueel weer

Dit bericht is 43 minuten geleden gemaakt, om 01:50 UTC
Wind 1 kt uit variabele richting
Temperatuur 13°C
Vochtigheid 100%
Druk 1025 hPa
Zicht 10 km of meer
Weinig wolken op 4500 ft
Gebroken wolken op 6200 ft

METAR: LSZL 210150Z AUTO VRB01KT 9999NDV FEW045 BKN062 13/13 Q1025 RMK

Tijdstip: 04:33 (02:33 UTC)

Verwachting

Dit bericht is 9 uur en het 8 minuten geleden gemaakt, om 17:25 UTC
Verwachting geldig van 20 om 18 UTC tot 21 om 03 UTC
Wind 3 kt uit variabele richting
Zicht 10 km of meer
Gebroken wolken op 6000 ft

TAF: LSZL 201725Z 2018/2103 VRB03KT 9999 BKN060

Waarnemingen en weersverwachtingen van meer dan 4000 vliegvelden (METAR en TAF).

De beschikbare stations zijn de gele en rode punten op de kaart.

Ga met uw muis naar het station om de naam te zien.

Klik dan om waarnemingen en weersverwachtingen te zien.

kaart wijzigen: klik op de groene knoppen met een zwart kruis om in te zoomen, op de groene knop met een streepje om uit te zoomen of op de groene pijlen voor aangrenzende kaarten.


METAR-TAF: